Airfield :
LOGIN :

Register | Disclaimer

   EN    FR    IT 

 










Legend :    VFR   Marginal VFR   IFR   Intensive IFR   Very Intensive IFR
Visi :
Ceiling :
>= 8 km
>= 3000ft
5 to 8 km
1000 to 3000 ft
1500m to 5 km
500 to 1000 ft
800 to 1500m
200 to 500 ft
< 800m
< 200 ft
Symbols :   Thunderstorms  Fog  Heavy snow  Heavy precipitations  Wind > 20 kt
SIGMETs :     Misc.  Thunderstorms  Icing  Turbulence  Mountain Waves  Volcanic Ashes






- Airport Elevation : 32 ft
- IATA code : NRK


ESSP - Norrköping

CURRENT METAR :
  • 270220Z AUTO 35009KT 9999 FZUP BKN014/// BKN024/// OVC055/// M01/M05 Q0995 RESG

EXPIRED METARs :
  • 270150Z AUTO 34008KT 9999 -SN FEW009/// SCT015/// BKN037/// M01/M04 Q0995
  • 270120Z AUTO 34009KT 9999 -SN FEW011/// BKN031/// BKN046/// M01/M04 Q0995
  • 270050Z AUTO 35010KT 330V030 9999 -SN FEW018/// BKN034/// OVC049/// M01/M05 Q0995 REFZUP
  • 270020Z AUTO 35010KT 9999 FZUP OVC032/// M01/M05 Q0995
  • 262350Z AUTO 35011KT 9999 -FZDZ BKN030/// OVC042/// M01/M05 Q0995 REFZUP

Expired Forecast.



MET'MAP, your aeronautical weather chart ! - Copyright ORBIFLY December 2007 - Disclaimer

ORBIFLY MET'MAP TEAM :

Programming & Development : Alexandra Zaïnal
Concept & original design : Baudouin d'Aumeries
Assistance for programming : Marc-Olivier Méhu
Technical & hardware support : Manuel Goepfert

Contact : metmap@orbifly.com




SOURCES & CREDITS :

   NOAA